sensor_id;sensor_type;location;lat;lon;timestamp;pressure;altitude;pressure_sealevel;temperature;humidity
41264;BME280;26998;48.714;9.414;2023-04-08T00:01:50;99137.38;;;6.92;100.00
41264;BME280;26998;48.714;9.414;2023-04-08T00:04:18;99137.69;;;6.89;100.00
41264;BME280;26998;48.714;9.414;2023-04-08T00:06:45;99139.34;;;6.90;100.00
41264;BME280;26998;48.714;9.414;2023-04-08T00:09:11;99132.69;;;6.94;100.00
41264;BME280;26998;48.714;9.414;2023-04-08T00:11:38;99134.03;;;6.90;100.00
41264;BME280;26998;48.714;9.414;2023-04-08T00:14:05;99130.72;;;6.88;100.00
41264;BME280;26998;48.714;9.414;2023-04-08T00:16:32;99133.38;;;6.88;100.00
41264;BME280;26998;48.714;9.414;2023-04-08T00:18:58;99130.56;;;6.90;100.00
41264;BME280;26998;48.714;9.414;2023-04-08T00:21:25;99135.72;;;6.83;100.00
41264;BME280;26998;48.714;9.414;2023-04-08T00:23:52;99130.41;;;6.83;100.00
41264;BME280;26998;48.714;9.414;2023-04-08T00:26:19;99128.09;;;6.80;100.00
41264;BME280;26998;48.714;9.414;2023-04-08T00:28:46;99130.41;;;6.83;100.00
41264;BME280;26998;48.714;9.414;2023-04-08T00:31:13;99133.56;;;6.87;100.00
41264;BME280;26998;48.714;9.414;2023-04-08T00:33:39;99135.38;;;6.86;100.00
41264;BME280;26998;48.714;9.414;2023-04-08T00:36:08;99139.03;;;6.85;100.00
41264;BME280;26998;48.714;9.414;2023-04-08T00:38:34;99137.38;;;6.84;100.00
41264;BME280;26998;48.714;9.414;2023-04-08T00:41:01;99135.19;;;6.88;100.00
41264;BME280;26998;48.714;9.414;2023-04-08T00:43:27;99140.03;;;6.92;100.00
41264;BME280;26998;48.714;9.414;2023-04-08T00:45:54;99141.00;;;6.91;100.00
41264;BME280;26998;48.714;9.414;2023-04-08T00:48:20;99134.38;;;6.87;100.00
41264;BME280;26998;48.714;9.414;2023-04-08T00:50:47;99143.34;;;6.86;100.00
41264;BME280;26998;48.714;9.414;2023-04-08T00:53:16;99150.66;;;6.84;100.00
41264;BME280;26998;48.714;9.414;2023-04-08T00:55:44;99145.19;;;6.86;100.00
41264;BME280;26998;48.714;9.414;2023-04-08T00:58:11;99157.13;;;6.90;100.00
41264;BME280;26998;48.714;9.414;2023-04-08T01:00:43;99167.75;;;6.90;100.00
41264;BME280;26998;48.714;9.414;2023-04-08T01:03:17;99171.72;;;6.94;100.00
41264;BME280;26998;48.714;9.414;2023-04-08T01:08:39;99187.84;;;6.92;100.00
41264;BME280;26998;48.714;9.414;2023-04-08T01:11:09;99191.00;;;6.96;100.00
41264;BME280;26998;48.714;9.414;2023-04-08T01:13:40;99213.28;;;6.95;100.00
41264;BME280;26998;48.714;9.414;2023-04-08T01:16:08;99218.59;;;6.95;100.00
41264;BME280;26998;48.714;9.414;2023-04-08T01:18:37;99217.56;;;6.96;100.00
41264;BME280;26998;48.714;9.414;2023-04-08T01:21:05;99223.22;;;6.93;100.00
41264;BME280;26998;48.714;9.414;2023-04-08T01:23:39;99222.72;;;6.98;100.00
41264;BME280;26998;48.714;9.414;2023-04-08T01:26:20;99221.25;;;6.95;100.00
41264;BME280;26998;48.714;9.414;2023-04-08T01:28:49;99218.41;;;6.97;100.00
41264;BME280;26998;48.714;9.414;2023-04-08T01:31:18;99227.53;;;6.94;100.00
41264;BME280;26998;48.714;9.414;2023-04-08T01:33:46;99229.53;;;6.92;100.00
41264;BME280;26998;48.714;9.414;2023-04-08T01:36:15;99227.03;;;6.90;100.00
41264;BME280;26998;48.714;9.414;2023-04-08T01:38:42;99230.38;;;6.92;100.00
41264;BME280;26998;48.714;9.414;2023-04-08T01:41:10;99225.53;;;6.88;100.00
41264;BME280;26998;48.714;9.414;2023-04-08T01:43:38;99239.00;;;6.86;100.00
41264;BME280;26998;48.714;9.414;2023-04-08T01:46:07;99239.66;;;6.88;100.00
41264;BME280;26998;48.714;9.414;2023-04-08T01:48:36;99251.28;;;6.87;100.00
41264;BME280;26998;48.714;9.414;2023-04-08T01:51:04;99246.16;;;6.86;100.00
41264;BME280;26998;48.714;9.414;2023-04-08T01:53:32;99250.63;;;6.85;100.00
41264;BME280;26998;48.714;9.414;2023-04-08T01:56:08;99258.94;;;6.82;100.00
41264;BME280;26998;48.714;9.414;2023-04-08T01:58:40;99265.22;;;6.81;100.00
41264;BME280;26998;48.714;9.414;2023-04-08T02:01:12;99262.88;;;6.78;100.00
41264;BME280;26998;48.714;9.414;2023-04-08T02:03:41;99271.19;;;6.75;100.00
41264;BME280;26998;48.714;9.414;2023-04-08T02:06:08;99272.19;;;6.74;100.00
41264;BME280;26998;48.714;9.414;2023-04-08T02:08:35;99276.34;;;6.77;100.00
41264;BME280;26998;48.714;9.414;2023-04-08T02:11:02;99286.66;;;6.80;100.00
41264;BME280;26998;48.714;9.414;2023-04-08T02:13:30;99291.13;;;6.79;100.00
41264;BME280;26998;48.714;9.414;2023-04-08T02:16:03;99297.09;;;6.81;100.00
41264;BME280;26998;48.714;9.414;2023-04-08T02:18:33;99290.81;;;6.82;100.00
41264;BME280;26998;48.714;9.414;2023-04-08T02:21:12;99289.44;;;6.78;100.00
41264;BME280;26998;48.714;9.414;2023-04-08T02:23:40;99284.81;;;6.80;100.00
41264;BME280;26998;48.714;9.414;2023-04-08T02:26:12;99284.13;;;6.78;100.00
41264;BME280;26998;48.714;9.414;2023-04-08T02:28:41;99281.34;;;6.80;100.00
41264;BME280;26998;48.714;9.414;2023-04-08T02:31:10;99281.47;;;6.78;100.00
41264;BME280;26998;48.714;9.414;2023-04-08T02:33:37;99283.31;;;6.78;100.00
41264;BME280;26998;48.714;9.414;2023-04-08T02:36:05;99284.97;;;6.79;100.00
41264;BME280;26998;48.714;9.414;2023-04-08T02:38:32;99283.50;;;6.76;100.00
41264;BME280;26998;48.714;9.414;2023-04-08T02:40:59;99288.81;;;6.76;100.00
41264;BME280;26998;48.714;9.414;2023-04-08T02:43:25;99285.94;;;6.69;100.00
41264;BME280;26998;48.714;9.414;2023-04-08T02:45:52;99299.22;;;6.69;100.00
41264;BME280;26998;48.714;9.414;2023-04-08T02:48:18;99286.94;;;6.68;100.00
41264;BME280;26998;48.714;9.414;2023-04-08T02:50:45;99282.78;;;6.66;100.00
41264;BME280;26998;48.714;9.414;2023-04-08T02:53:11;99284.78;;;6.64;100.00
41264;BME280;26998;48.714;9.414;2023-04-08T02:55:38;99275.97;;;6.63;100.00
41264;BME280;26998;48.714;9.414;2023-04-08T02:58:04;99269.81;;;6.63;100.00
41264;BME280;26998;48.714;9.414;2023-04-08T03:00:31;99272.16;;;6.66;100.00
41264;BME280;26998;48.714;9.414;2023-04-08T03:02:57;99274.50;;;6.61;100.00
41264;BME280;26998;48.714;9.414;2023-04-08T03:05:25;99274.50;;;6.61;100.00
41264;BME280;26998;48.714;9.414;2023-04-08T03:07:52;99269.81;;;6.63;100.00
41264;BME280;26998;48.714;9.414;2023-04-08T03:10:18;99272.47;;;6.63;100.00
41264;BME280;26998;48.714;9.414;2023-04-08T03:12:45;99275.13;;;6.63;100.00
41264;BME280;26998;48.714;9.414;2023-04-08T03:15:12;99289.94;;;6.65;100.00
41264;BME280;26998;48.714;9.414;2023-04-08T03:17:38;99284.47;;;6.67;100.00
41264;BME280;26998;48.714;9.414;2023-04-08T03:20:06;99294.75;;;6.70;100.00
41264;BME280;26998;48.714;9.414;2023-04-08T03:22:33;99288.44;;;6.71;100.00
41264;BME280;26998;48.714;9.414;2023-04-08T03:24:59;99284.78;;;6.72;100.00
41264;BME280;26998;48.714;9.414;2023-04-08T03:27:27;99294.75;;;6.70;100.00
41264;BME280;26998;48.714;9.414;2023-04-08T03:29:53;99281.47;;;6.70;100.00
41264;BME280;26998;48.714;9.414;2023-04-08T03:32:20;99284.16;;;6.70;100.00
41264;BME280;26998;48.714;9.414;2023-04-08T03:34:46;99285.13;;;6.69;100.00
41264;BME280;26998;48.714;9.414;2023-04-08T03:37:13;99291.25;;;6.69;100.00
41264;BME280;26998;48.714;9.414;2023-04-08T03:39:40;99285.94;;;6.69;100.00
41264;BME280;26998;48.714;9.414;2023-04-08T03:42:06;99287.28;;;6.65;100.00
41264;BME280;26998;48.714;9.414;2023-04-08T03:44:33;99288.28;;;6.64;100.00
41264;BME280;26998;48.714;9.414;2023-04-08T03:46:59;99291.25;;;6.61;100.00
41264;BME280;26998;48.714;9.414;2023-04-08T03:49:26;99295.88;;;6.59;100.00
41264;BME280;26998;48.714;9.414;2023-04-08T03:51:52;99301.38;;;6.58;100.00
41264;BME280;26998;48.714;9.414;2023-04-08T03:54:19;99298.03;;;6.56;100.00
41264;BME280;26998;48.714;9.414;2023-04-08T03:56:45;99303.34;;;6.56;100.00
41264;BME280;26998;48.714;9.414;2023-04-08T03:59:12;99306.31;;;6.53;100.00
41264;BME280;26998;48.714;9.414;2023-04-08T04:01:38;99309.31;;;6.50;100.00
41264;BME280;26998;48.714;9.414;2023-04-08T04:04:07;99319.91;;;6.50;100.00
41264;BME280;26998;48.714;9.414;2023-04-08T04:06:33;99325.22;;;6.50;100.00
41264;BME280;26998;48.714;9.414;2023-04-08T04:09:00;99328.88;;;6.48;100.00
41264;BME280;26998;48.714;9.414;2023-04-08T04:11:26;99339.50;;;6.48;100.00
41264;BME280;26998;48.714;9.414;2023-04-08T04:13:53;99331.53;;;6.48;100.00
41264;BME280;26998;48.714;9.414;2023-04-08T04:16:19;99348.13;;;6.42;100.00
41264;BME280;26998;48.714;9.414;2023-04-08T04:18:46;99344.25;;;6.37;100.00
41264;BME280;26998;48.714;9.414;2023-04-08T04:21:13;99343.91;;;6.32;100.00
41264;BME280;26998;48.714;9.414;2023-04-08T04:23:40;99329.28;;;6.28;100.00
41264;BME280;26998;48.714;9.414;2023-04-08T04:26:07;99335.91;;;6.23;100.00
41264;BME280;26998;48.714;9.414;2023-04-08T04:28:34;99339.84;;;6.19;100.00
41264;BME280;26998;48.714;9.414;2023-04-08T04:31:01;99331.06;;;6.19;100.00
41264;BME280;26998;48.714;9.414;2023-04-08T04:33:28;99326.06;;;6.16;100.00
41264;BME280;26998;48.714;9.414;2023-04-08T04:35:55;99328.91;;;6.14;100.00
41264;BME280;26998;48.714;9.414;2023-04-08T04:38:22;99316.91;;;6.10;100.00
41264;BME280;26998;48.714;9.414;2023-04-08T04:40:48;99309.28;;;6.07;100.00
41264;BME280;26998;48.714;9.414;2023-04-08T04:43:15;99313.94;;;6.05;100.00
41264;BME280;26998;48.714;9.414;2023-04-08T04:45:41;99304.97;;;6.06;100.00
41264;BME280;26998;48.714;9.414;2023-04-08T04:48:08;99298.97;;;6.04;100.00
41264;BME280;26998;48.714;9.414;2023-04-08T04:50:34;99304.13;;;6.06;100.00
41264;BME280;26998;48.714;9.414;2023-04-08T04:53:01;99294.22;;;6.08;100.00
41264;BME280;26998;48.714;9.414;2023-04-08T04:55:27;99303.13;;;6.07;100.00
41264;BME280;26998;48.714;9.414;2023-04-08T04:57:54;99310.28;;;6.06;100.00
41264;BME280;26998;48.714;9.414;2023-04-08T05:00:20;99315.56;;;6.06;100.00
41264;BME280;26998;48.714;9.414;2023-04-08T05:02:47;99320.06;;;6.06;100.00
41264;BME280;26998;48.714;9.414;2023-04-08T05:05:14;99324.22;;;6.08;100.00
41264;BME280;26998;48.714;9.414;2023-04-08T05:07:41;99326.06;;;6.08;100.00
41264;BME280;26998;48.714;9.414;2023-04-08T05:10:08;99328.69;;;6.08;100.00
41264;BME280;26998;48.714;9.414;2023-04-08T05:12:34;99334.53;;;6.11;100.00
41264;BME280;26998;48.714;9.414;2023-04-08T05:15:01;99333.69;;;6.11;100.00
41264;BME280;26998;48.714;9.414;2023-04-08T05:17:27;99330.03;;;6.12;100.00
41264;BME280;26998;48.714;9.414;2023-04-08T05:19:54;99342.47;;;6.11;100.00
41264;BME280;26998;48.714;9.414;2023-04-08T05:22:21;99334.34;;;6.13;100.00
41264;BME280;26998;48.714;9.414;2023-04-08T05:24:47;99342.63;;;6.10;100.00
41264;BME280;26998;48.714;9.414;2023-04-08T05:27:14;99348.25;;;6.07;100.00
41264;BME280;26998;48.714;9.414;2023-04-08T05:29:41;99354.94;;;6.11;100.00
41264;BME280;26998;48.714;9.414;2023-04-08T05:32:07;99355.56;;;6.13;100.00
41264;BME280;26998;48.714;9.414;2023-04-08T05:34:34;99349.81;;;6.17;100.00
41264;BME280;26998;48.714;9.414;2023-04-08T05:37:01;99357.81;;;6.25;100.00
41264;BME280;26998;48.714;9.414;2023-04-08T05:39:27;99359.81;;;6.32;100.00
41264;BME280;26998;48.714;9.414;2023-04-08T05:41:54;99362.66;;;6.30;100.00
41264;BME280;26998;48.714;9.414;2023-04-08T05:44:21;99375.59;;;6.33;100.00
41264;BME280;26998;48.714;9.414;2023-04-08T05:46:47;99402.66;;;6.37;100.00
41264;BME280;26998;48.714;9.414;2023-04-08T05:49:14;99420.13;;;6.47;100.00
41264;BME280;26998;48.714;9.414;2023-04-08T05:51:40;99438.78;;;6.56;100.00
41264;BME280;26998;48.714;9.414;2023-04-08T05:54:07;99455.03;;;6.53;100.00
41264;BME280;26998;48.714;9.414;2023-04-08T05:56:34;99480.13;;;6.58;100.00
41264;BME280;26998;48.714;9.414;2023-04-08T05:59:00;99499.38;;;6.60;100.00
41264;BME280;26998;48.714;9.414;2023-04-08T06:01:27;99534.91;;;6.59;100.00
41264;BME280;26998;48.714;9.414;2023-04-08T06:03:54;99558.66;;;6.61;100.00
41264;BME280;26998;48.714;9.414;2023-04-08T06:06:22;99558.19;;;6.65;100.00
41264;BME280;26998;48.714;9.414;2023-04-08T06:08:48;99582.94;;;6.66;100.00
41264;BME280;26998;48.714;9.414;2023-04-08T06:11:15;99591.59;;;6.68;100.00
41264;BME280;26998;48.714;9.414;2023-04-08T06:13:42;99605.25;;;6.73;100.00
41264;BME280;26998;48.714;9.414;2023-04-08T06:16:14;99614.19;;;6.72;100.00
41264;BME280;26998;48.714;9.414;2023-04-08T06:18:44;99618.47;;;6.65;100.00
41264;BME280;26998;48.714;9.414;2023-04-08T06:21:10;99636.44;;;6.71;100.00
41264;BME280;26998;48.714;9.414;2023-04-08T06:23:37;99637.25;;;6.71;100.00
41264;BME280;26998;48.714;9.414;2023-04-08T06:26:04;99636.56;;;6.69;100.00
41264;BME280;26998;48.714;9.414;2023-04-08T06:28:32;99635.97;;;6.76;100.00
41264;BME280;26998;48.714;9.414;2023-04-08T06:30:59;99643.41;;;6.72;100.00
41264;BME280;26998;48.714;9.414;2023-04-08T06:33:25;99647.28;;;6.78;100.00
41264;BME280;26998;48.714;9.414;2023-04-08T06:36:01;99645.63;;;6.77;100.00
41264;BME280;26998;48.714;9.414;2023-04-08T06:38:27;99638.69;;;6.84;100.00
41264;BME280;26998;48.714;9.414;2023-04-08T06:40:54;99656.47;;;6.83;100.00
41264;BME280;26998;48.714;9.414;2023-04-08T06:43:21;99666.41;;;6.81;100.00
41264;BME280;26998;48.714;9.414;2023-04-08T06:45:48;99672.41;;;6.83;100.00
41264;BME280;26998;48.714;9.414;2023-04-08T06:48:15;99676.19;;;6.81;100.00
41264;BME280;26998;48.714;9.414;2023-04-08T06:50:41;99683.03;;;6.83;100.00
41264;BME280;26998;48.714;9.414;2023-04-08T06:53:08;99690.09;;;6.92;100.00
41264;BME280;26998;48.714;9.414;2023-04-08T06:55:34;99683.78;;;6.93;100.00
41264;BME280;26998;48.714;9.414;2023-04-08T06:58:01;99684.16;;;6.99;100.00
41264;BME280;26998;48.714;9.414;2023-04-08T07:00:27;99697.06;;;6.93;100.00
41264;BME280;26998;48.714;9.414;2023-04-08T07:02:54;99709.13;;;6.88;100.00
41264;BME280;26998;48.714;9.414;2023-04-08T07:05:21;99701.75;;;7.00;100.00
41264;BME280;26998;48.714;9.414;2023-04-08T07:07:47;99701.88;;;7.16;100.00
41264;BME280;26998;48.714;9.414;2023-04-08T07:10:14;99710.53;;;7.18;100.00
41264;BME280;26998;48.714;9.414;2023-04-08T07:12:40;99714.91;;;7.27;100.00
41264;BME280;26998;48.714;9.414;2023-04-08T07:15:07;99727.97;;;7.38;100.00
41264;BME280;26998;48.714;9.414;2023-04-08T07:17:34;99731.50;;;7.47;100.00
41264;BME280;26998;48.714;9.414;2023-04-08T07:20:01;99729.22;;;7.52;100.00
41264;BME280;26998;48.714;9.414;2023-04-08T07:22:27;99732.03;;;7.51;100.00
41264;BME280;26998;48.714;9.414;2023-04-08T07:24:54;99729.38;;;7.51;100.00
41264;BME280;26998;48.714;9.414;2023-04-08T07:27:20;99730.09;;;7.61;100.00
41264;BME280;26998;48.714;9.414;2023-04-08T07:29:51;99738.41;;;7.58;100.00
41264;BME280;26998;48.714;9.414;2023-04-08T07:32:18;99734.72;;;7.59;100.00
41264;BME280;26998;48.714;9.414;2023-04-08T07:34:45;99730.44;;;7.66;100.00
41264;BME280;26998;48.714;9.414;2023-04-08T07:37:11;99743.81;;;7.74;100.00
41264;BME280;26998;48.714;9.414;2023-04-08T07:39:38;99745.44;;;7.67;100.00
41264;BME280;26998;48.714;9.414;2023-04-08T07:42:05;99756.84;;;7.85;100.00
41264;BME280;26998;48.714;9.414;2023-04-08T07:44:31;99748.56;;;7.97;100.00
41264;BME280;26998;48.714;9.414;2023-04-08T07:46:58;99749.50;;;7.79;100.00
41264;BME280;26998;48.714;9.414;2023-04-08T07:49:25;99757.81;;;7.84;100.00
41264;BME280;26998;48.714;9.414;2023-04-08T07:51:51;99747.94;;;8.03;100.00
41264;BME280;26998;48.714;9.414;2023-04-08T07:54:18;99753.63;;;8.08;100.00
41264;BME280;26998;48.714;9.414;2023-04-08T07:56:44;99751.72;;;8.34;100.00
41264;BME280;26998;48.714;9.414;2023-04-08T07:59:11;99733.19;;;8.25;100.00
41264;BME280;26998;48.714;9.414;2023-04-08T08:01:38;99730.56;;;8.33;100.00
41264;BME280;26998;48.714;9.414;2023-04-08T08:04:04;99832.09;;;8.30;100.00
41264;BME280;26998;48.714;9.414;2023-04-08T08:06:31;99808.03;;;8.40;100.00
41264;BME280;26998;48.714;9.414;2023-04-08T08:08:59;99794.63;;;8.58;100.00
41264;BME280;26998;48.714;9.414;2023-04-08T08:11:26;99765.13;;;8.59;100.00
41264;BME280;26998;48.714;9.414;2023-04-08T08:13:52;99741.47;;;8.56;100.00
41264;BME280;26998;48.714;9.414;2023-04-08T08:16:19;99742.31;;;8.48;100.00
41264;BME280;26998;48.714;9.414;2023-04-08T08:18:46;99750.31;;;8.65;100.00
41264;BME280;26998;48.714;9.414;2023-04-08T08:21:12;99757.78;;;8.53;100.00
41264;BME280;26998;48.714;9.414;2023-04-08T08:23:39;99780.31;;;8.67;100.00
41264;BME280;26998;48.714;9.414;2023-04-08T08:26:06;99780.84;;;8.78;100.00
41264;BME280;26998;48.714;9.414;2023-04-08T08:28:33;99752.84;;;8.74;100.00
41264;BME280;26998;48.714;9.414;2023-04-08T08:31:00;99751.84;;;8.84;100.00
41264;BME280;26998;48.714;9.414;2023-04-08T08:33:27;99726.84;;;8.68;100.00
41264;BME280;26998;48.714;9.414;2023-04-08T08:35:54;99708.88;;;8.70;100.00
41264;BME280;26998;48.714;9.414;2023-04-08T08:38:20;99676.56;;;8.82;100.00
41264;BME280;26998;48.714;9.414;2023-04-08T08:40:53;99645.03;;;9.18;100.00
41264;BME280;26998;48.714;9.414;2023-04-08T08:43:19;99618.91;;;9.53;100.00
41264;BME280;26998;48.714;9.414;2023-04-08T08:45:46;99572.13;;;9.34;100.00
41264;BME280;26998;48.714;9.414;2023-04-08T08:48:12;99570.25;;;9.42;100.00
41264;BME280;26998;48.714;9.414;2023-04-08T08:50:39;99585.69;;;9.63;100.00
41264;BME280;26998;48.714;9.414;2023-04-08T08:53:05;99537.28;;;9.98;100.00
41264;BME280;26998;48.714;9.414;2023-04-08T08:55:32;99513.88;;;10.00;100.00
41264;BME280;26998;48.714;9.414;2023-04-08T08:58:19;99491.09;;;9.89;100.00
41264;BME280;26998;48.714;9.414;2023-04-08T09:00:46;99473.34;;;9.96;100.00
41264;BME280;26998;48.714;9.414;2023-04-08T09:05:48;99443.63;;;9.99;100.00
41264;BME280;26998;48.714;9.414;2023-04-08T09:08:32;99436.56;;;10.06;100.00
41264;BME280;26998;48.714;9.414;2023-04-08T09:11:18;99357.97;;;9.86;100.00
41264;BME280;26998;48.714;9.414;2023-04-08T09:13:46;99404.06;;;9.80;100.00
41264;BME280;26998;48.714;9.414;2023-04-08T09:16:15;99382.06;;;9.78;100.00
41264;BME280;26998;48.714;9.414;2023-04-08T09:18:43;99367.09;;;10.29;100.00
41264;BME280;26998;48.714;9.414;2023-04-08T09:21:11;99358.69;;;10.32;100.00
41264;BME280;26998;48.714;9.414;2023-04-08T09:26:08;99314.72;;;10.50;100.00
41264;BME280;26998;48.714;9.414;2023-04-08T09:28:37;99279.25;;;10.92;100.00
41264;BME280;26998;48.714;9.414;2023-04-08T09:31:23;99280.03;;;11.07;100.00
41264;BME280;26998;48.714;9.414;2023-04-08T09:33:56;99270.28;;;10.63;100.00
41264;BME280;26998;48.714;9.414;2023-04-08T09:36:23;99259.13;;;10.75;100.00
41264;BME280;26998;48.714;9.414;2023-04-08T09:38:51;99257.34;;;10.46;100.00
41264;BME280;26998;48.714;9.414;2023-04-08T09:41:18;99240.59;;;10.22;100.00
41264;BME280;26998;48.714;9.414;2023-04-08T09:43:55;99243.53;;;10.42;100.00
41264;BME280;26998;48.714;9.414;2023-04-08T09:54:20;99235.03;;;11.18;100.00
41264;BME280;26998;48.714;9.414;2023-04-08T09:56:59;99223.91;;;11.70;100.00
41264;BME280;26998;48.714;9.414;2023-04-08T09:59:30;99215.31;;;11.75;100.00
41264;BME280;26998;48.714;9.414;2023-04-08T10:02:06;99207.97;;;12.25;100.00
41264;BME280;26998;48.714;9.414;2023-04-08T10:04:38;99217.38;;;11.79;100.00
41264;BME280;26998;48.714;9.414;2023-04-08T10:07:07;99211.94;;;11.94;100.00
41264;BME280;26998;48.714;9.414;2023-04-08T10:09:34;99216.88;;;11.63;100.00
41264;BME280;26998;48.714;9.414;2023-04-08T10:12:02;99218.59;;;11.77;100.00
41264;BME280;26998;48.714;9.414;2023-04-08T10:14:29;99213.44;;;11.75;100.00
41264;BME280;26998;48.714;9.414;2023-04-08T10:17:23;99220.69;;;11.82;100.00
41264;BME280;26998;48.714;9.414;2023-04-08T10:19:50;99220.03;;;11.45;100.00
41264;BME280;26998;48.714;9.414;2023-04-08T10:25:40;99228.53;;;10.41;100.00
41264;BME280;26998;48.714;9.414;2023-04-08T10:30:42;99243.13;;;10.60;100.00
41264;BME280;26998;48.714;9.414;2023-04-08T10:33:14;99227.41;;;10.21;100.00
41264;BME280;26998;48.714;9.414;2023-04-08T10:38:09;99238.09;;;10.21;100.00
41264;BME280;26998;48.714;9.414;2023-04-08T10:40:36;99253.28;;;9.90;100.00
41264;BME280;26998;48.714;9.414;2023-04-08T10:43:03;99265.34;;;9.71;100.00
41264;BME280;26998;48.714;9.414;2023-04-08T10:45:30;99264.72;;;9.69;100.00
41264;BME280;26998;48.714;9.414;2023-04-08T10:48:10;99270.16;;;9.91;100.00
41264;BME280;26998;48.714;9.414;2023-04-08T10:50:37;99255.72;;;10.00;100.00
41264;BME280;26998;48.714;9.414;2023-04-08T10:53:04;99265.66;;;10.06;100.00
41264;BME280;26998;48.714;9.414;2023-04-08T10:55:32;99259.00;;;10.02;100.00
41264;BME280;26998;48.714;9.414;2023-04-08T10:58:06;99257.53;;;10.14;100.00
41264;BME280;26998;48.714;9.414;2023-04-08T11:00:38;99251.47;;;10.35;100.00
41264;BME280;26998;48.714;9.414;2023-04-08T11:03:07;99241.69;;;9.98;100.00
41264;BME280;26998;48.714;9.414;2023-04-08T11:05:35;99237.19;;;9.84;100.00
41264;BME280;26998;48.714;9.414;2023-04-08T11:08:01;99242.72;;;9.82;100.00
41264;BME280;26998;48.714;9.414;2023-04-08T11:10:28;99227.91;;;10.09;100.00
41264;BME280;26998;48.714;9.414;2023-04-08T11:12:55;99225.38;;;10.23;100.00
41264;BME280;26998;48.714;9.414;2023-04-08T11:15:24;99216.03;;;9.97;100.00
41264;BME280;26998;48.714;9.414;2023-04-08T11:17:50;99221.53;;;10.10;100.00
41264;BME280;26998;48.714;9.414;2023-04-08T11:20:17;99224.09;;;10.33;100.00
41264;BME280;26998;48.714;9.414;2023-04-08T11:22:44;99217.22;;;10.60;100.00
41264;BME280;26998;48.714;9.414;2023-04-08T11:25:11;99214.97;;;10.43;100.00
41264;BME280;26998;48.714;9.414;2023-04-08T11:27:38;99210.91;;;10.47;100.00
41264;BME280;26998;48.714;9.414;2023-04-08T11:30:06;99215.72;;;10.36;100.00
41264;BME280;26998;48.714;9.414;2023-04-08T11:32:34;99201.97;;;10.39;98.77
41264;BME280;26998;48.714;9.414;2023-04-08T11:35:04;99205.50;;;10.10;98.93
41264;BME280;26998;48.714;9.414;2023-04-08T11:37:40;99213.97;;;9.99;97.20
41264;BME280;26998;48.714;9.414;2023-04-08T11:40:08;99209.38;;;9.93;93.59
41264;BME280;26998;48.714;9.414;2023-04-08T11:42:35;99203.28;;;9.99;94.09
41264;BME280;26998;48.714;9.414;2023-04-08T11:45:09;99200.16;;;10.25;94.79
41264;BME280;26998;48.714;9.414;2023-04-08T11:47:36;99202.78;;;10.40;94.62
41264;BME280;26998;48.714;9.414;2023-04-08T11:50:04;99201.63;;;10.28;89.97
41264;BME280;26998;48.714;9.414;2023-04-08T11:52:43;99207.06;;;10.34;87.96
41264;BME280;26998;48.714;9.414;2023-04-08T11:55:12;99194.56;;;10.56;87.44
41264;BME280;26998;48.714;9.414;2023-04-08T11:57:47;99195.63;;;10.40;85.34
41264;BME280;26998;48.714;9.414;2023-04-08T12:00:13;99205.56;;;10.47;82.33
41264;BME280;26998;48.714;9.414;2023-04-08T12:02:40;99205.09;;;10.43;83.46
41264;BME280;26998;48.714;9.414;2023-04-08T12:05:07;99204.97;;;10.00;80.27
41264;BME280;26998;48.714;9.414;2023-04-08T12:07:34;99213.88;;;10.07;83.27
41264;BME280;26998;48.714;9.414;2023-04-08T12:10:00;99213.44;;;10.04;81.44
41264;BME280;26998;48.714;9.414;2023-04-08T12:12:27;99226.06;;;10.10;76.04
41264;BME280;26998;48.714;9.414;2023-04-08T12:14:54;99219.66;;;10.26;77.90
41264;BME280;26998;48.714;9.414;2023-04-08T12:17:20;99218.69;;;10.27;77.46
41264;BME280;26998;48.714;9.414;2023-04-08T12:19:47;99223.22;;;10.62;78.62
41264;BME280;26998;48.714;9.414;2023-04-08T12:22:13;99226.94;;;10.47;70.90
41264;BME280;26998;48.714;9.414;2023-04-08T12:24:40;99226.59;;;10.35;71.51
41264;BME280;26998;48.714;9.414;2023-04-08T12:27:06;99228.63;;;10.33;71.13
41264;BME280;26998;48.714;9.414;2023-04-08T12:29:33;99223.19;;;10.11;74.55
41264;BME280;26998;48.714;9.414;2023-04-08T12:32:00;99219.84;;;10.39;79.28
41264;BME280;26998;48.714;9.414;2023-04-08T12:34:26;99219.47;;;10.42;80.13
41264;BME280;26998;48.714;9.414;2023-04-08T12:36:53;99216.94;;;10.55;80.94
41264;BME280;26998;48.714;9.414;2023-04-08T12:39:20;99219.25;;;10.58;79.68
41264;BME280;26998;48.714;9.414;2023-04-08T12:41:47;99215.84;;;10.50;85.45
41264;BME280;26998;48.714;9.414;2023-04-08T12:44:14;99212.22;;;10.36;84.98
41264;BME280;26998;48.714;9.414;2023-04-08T12:46:40;99211.31;;;10.29;89.30
41264;BME280;26998;48.714;9.414;2023-04-08T12:49:07;99215.25;;;10.33;91.40
41264;BME280;26998;48.714;9.414;2023-04-08T12:51:35;99202.31;;;10.00;93.06
41264;BME280;26998;48.714;9.414;2023-04-08T12:54:01;99202.56;;;10.05;94.89
41264;BME280;26998;48.714;9.414;2023-04-08T12:56:29;99207.63;;;10.30;95.48
41264;BME280;26998;48.714;9.414;2023-04-08T12:58:56;99203.31;;;10.29;95.70
41264;BME280;26998;48.714;9.414;2023-04-08T13:01:22;99213.31;;;10.42;94.32
41264;BME280;26998;48.714;9.414;2023-04-08T13:03:49;99215.91;;;10.35;94.57
41264;BME280;26998;48.714;9.414;2023-04-08T13:06:16;99210.72;;;10.33;94.71
41264;BME280;26998;48.714;9.414;2023-04-08T13:08:42;99206.75;;;10.44;94.74
41264;BME280;26998;48.714;9.414;2023-04-08T13:11:08;99213.47;;;10.40;95.26
41264;BME280;26998;48.714;9.414;2023-04-08T13:13:35;99205.66;;;10.24;94.67
41264;BME280;26998;48.714;9.414;2023-04-08T13:16:02;99208.91;;;10.19;96.15
41264;BME280;26998;48.714;9.414;2023-04-08T13:18:28;99209.16;;;10.24;97.36
41264;BME280;26998;48.714;9.414;2023-04-08T13:20:56;99207.75;;;10.43;98.16
41264;BME280;26998;48.714;9.414;2023-04-08T13:23:22;99205.09;;;10.43;97.01
41264;BME280;26998;48.714;9.414;2023-04-08T13:25:49;99208.16;;;10.25;97.52
41264;BME280;26998;48.714;9.414;2023-04-08T13:28:15;99204.00;;;10.23;99.39